Surface/Precipitation History
01/19/2019 02:18  to  1/20/2019 02:18
Change End Date:
To complete the export process:
1) Select all of the data below
2) Copy the data to the clipboard
3) Open a word processor such as Notepad
4) Paste the data into the word processor
5) Save the file

Date/Time (MDT), SfStatus, SfTemp, PvtTemp, SubTemp, FreezeTemp, ChemFactor, ChemPercent, WaterDepth, WaterDepthIceThickness, IcePercent, Conductivity, Salinity, FrictionIndex, PrecipType, PrecipIntensity, Accumulation, PrecipRate
01/20/2019 02:17, Chemically Wet, 31.3, , 33, 31, 95, 5, 0, , 0, 13, 1381, , None, None, ,  
01/20/2019 02:07, Chemically Wet, 31.5, , 33, 31, 95, 4, 0, , 0, 12, 1307, , None, None, ,  
01/20/2019 02:06, Chemically Wet, 31.6, , 33, 31, 95, 4, 0, , 0, 12, 1292, , Yes, , ,  
01/20/2019 01:57, Wet, 32, , 33, 31, 95, 4, 0, , 0, 11, 1174, , None, None, ,  
01/20/2019 01:51, Wet, 32.2, , 33, 31, 95, 4, 0, , 0, 10, 1053, , None, None, ,  
01/20/2019 01:47, Wet, 32.2, , 33, 31, 95, 4, 0, , 0, 11, 1100, , None, None, ,  
01/20/2019 01:37, Wet, 32.2, , 33, 31, 95, 3, 0, , 0, 9, 913, , None, None, ,  
01/20/2019 01:36, Wet, 32.2, , 33, 31, 95, 3, 0, , 0, 9, 874, , None, None, ,  
01/20/2019 01:27, Wet, 32, , 33, 31, 95, 5, 0, , 0, 13, 1363, , None, None, ,  
01/20/2019 01:21, Wet, 32, , 33, 31, 95, 5, 0, , 0, 13, 1363, , None, None, ,  
01/20/2019 01:17, Wet, 32, , 33, 31, 95, 4, 0, , 0, 12, 1294, , None, None, ,  
01/20/2019 01:06, Wet, 32.2, , 33, 31, 95, 4, 0, , 0, 12, 1223, , None, None, ,  
01/20/2019 01:06, Wet, 32.2, , 33, 31, 95, 4, 0, , 0, 12, 1214, , None, None, ,  
01/20/2019 00:56, Wet, 32.2, , 33, 31, 95, 4, 0, , 0, 11, 1135, , None, None, ,  
01/20/2019 00:51, Wet, 32.2, , 33, 31, 95, 4, 0, , 0, 10, 1054, , None, None, ,  
01/20/2019 00:46, Chemically Wet, 31.8, , 33, 31, 95, 4, 0, , 0, 12, 1237, , None, None, ,  
01/20/2019 00:36, Chemically Wet, 31.6, , 33, 31, 95, 4, 0, , 0, 11, 1187, , Yes, , ,  
01/20/2019 00:36, Chemically Wet, 31.6, , 33, 31, 95, 4, 0, , 0, 11, 1187, , Yes, , ,  
01/20/2019 00:26, Chemically Wet, 31.8, , 33, 31, 95, 4, 0, , 0, 11, 1120, , None, None, ,  
01/20/2019 00:21, Chemically Wet, 32, , 33, 31, 95, 4, 0, , 0, 11, 1096, , None, None, ,  
01/20/2019 00:16, Wet, 32, , 33, 31, 95, 3, 0, , 0, 10, 1019, , None, None, ,  
01/20/2019 00:06, Wet, 32.4, , 33, 31, 95, 3, 0, , 0, 9, 879, , None, None, ,  
01/20/2019 00:06, Wet, 32.4, , 33, 31, 95, 3, 0, , 0, 9, 879, , None, None, ,  
01/19/2019 23:56, Wet, 32.5, , 33, 31, 95, 3, 0, , 0, 8, 853, , None, None, ,  
01/19/2019 23:51, Wet, 32.4, , 33, 31, 95, 4, 0, , 0, 11, 1101, , None, None, ,  
01/19/2019 23:46, Wet, 32.7, , 33, 31, 95, 3, 0, , 0, 10, 1045, , None, None, ,  
01/19/2019 23:36, Wet, 32.7, , 33, 31, 95, 3, 0, , 0, 9, 967, , None, None, ,  
01/19/2019 23:35, Wet, 32.7, , 33, 31, 95, 3, 0, , 0, 9, 945, , None, None, ,  
01/19/2019 23:26, Wet, 32.9, , 33, 31, 95, 4, 0, , 0, 10, 1064, , Yes, , ,  
01/19/2019 23:21, Wet, 32.9, , 33, 31, 95, 4, 0, , 0, 11, 1078, , None, None, ,  
01/19/2019 23:16, Wet, 32.9, , 33, 31, 95, 3, 0, , 0, 10, 978, , None, None, ,  
01/19/2019 23:06, Wet, 33.3, , 33, 31, 95, 3, 0, , 0, 8, 835, , None, None, ,  
01/19/2019 23:05, Wet, 33.4, , 33, 31, 95, 3, 0, , 0, 8, 789, , None, None, ,  
01/19/2019 22:56, Wet, 33.3, , 33, 31, 95, 4, 0, , 0, 11, 1168, , None, None, ,  
01/19/2019 22:50, Wet, 33.4, , 33, 31, 95, 4, 0, , 0, 11, 1101, , None, None, ,  
01/19/2019 22:46, Wet, 33.8, , 33, 31, 95, 4, 0, , 0, 10, 1055, , None, None, ,  
01/19/2019 22:36, Wet, 34.2, , 33, 31, 95, 3, 0, , 0, 9, 911, , None, None, ,  
01/19/2019 22:36, Wet, 34.2, , 33, 31, 95, 3, 0, , 0, 9, 911, , None, None, ,  
01/19/2019 22:26, Wet, 34.3, , 33, 31, 95, 2, 0, , 0, 6, 625, , Yes, , ,  
01/19/2019 22:21, Wet, 34.3, , 33, 31, 95, 4, 0, , 0, 11, 1111, , None, None, ,  
01/19/2019 22:16, Wet, 34.3, , 33, 31, 95, 3, 0, , 0, 10, 1000, , Yes, , ,  
01/19/2019 22:06, Wet, 34.7, , 33, 31, 95, 3, 0, , 0, 8, 814, , None, None, ,  
01/19/2019 22:05, Wet, 34.7, , 33, 31, 95, 3, 0, , 0, 8, 798, , Yes, , ,  
01/19/2019 21:55, Wet, 34.9, , 33, 31, 95, 3, 0, , 0, 10, 943, , Yes, , ,  
01/19/2019 21:51, Wet, 34.7, , 33, 31, 95, 4, 0, , 0, 11, 1067, , Yes, , ,  
01/19/2019 21:45, Wet, 34.9, , 33, 31, 95, 3, 0, , 0, 10, 959, , Yes, , ,  
01/19/2019 21:36, Wet, 34.7, , 33, 31, 95, 3, 0, , 0, 9, 863, , Yes, , ,  
01/19/2019 21:35, Wet, 34.7, , 33, 31, 95, 3, 0, , 0, 9, 863, , None, None, ,  
01/19/2019 21:25, Wet, 34.5, , 33, 31, 95, 3, 0, , 0, 9, 929, , Yes, , ,  
01/19/2019 21:20, Wet, 34.7, , 33, 31, 95, 3, 0, , 0, 8, 821, , Yes, , ,  
01/19/2019 21:15, Wet, 34.7, , 33, 31, 95, 3, 0, , 0, 9, 896, , Yes, , ,  
01/19/2019 21:05, Wet, 34.5, , 33, 31, 95, 3, 0, , 0, 8, 775, , Yes, , ,  
01/19/2019 21:05, Wet, 34.5, , 33, 31, 95, 2, 0, , 0, 8, 749, , Yes, , ,  
01/19/2019 20:55, Wet, 34.3, , 33, 32, 95, 1, 0, , 0, 3, 308, , Yes, , ,  
01/19/2019 20:51, Wet, 34.3, , 33, 32, 95, 1, 0, , 0, 3, 291, , Yes, , ,  
01/19/2019 20:45, Wet, 34, , 33, 32, 95, 1, 0, , 0, 2, 161, , Yes, , ,  
01/19/2019 20:36, Wet, 34, , 33, 32, 95, 0, 0, , 0, 1, 57, , Yes, , ,  
01/19/2019 20:35, Wet, 33.8, , 33, 32, 95, 0, 0, , 0, 1, 74, , Yes, , ,  
01/19/2019 20:25, Wet, 34, , 33, 32, 95, 0, 0, , 0, 1, 86, , Yes, , ,  
01/19/2019 20:21, Wet, 34, , 33, 32, 95, 0, 0, , 0, 1, 83, , Yes, , ,  
01/19/2019 20:15, Wet, 33.8, , 33, 32, 95, 0, 0, , 0, 1, 92, , Yes, , ,  
01/19/2019 20:05, Wet, 34, , 33, 32, 95, 0, 0, , 0, 1, 83, , Yes, , ,  
01/19/2019 20:05, Wet, 34, , 33, 32, 95, 0, 0, , 0, 1, 83, , Yes, , ,  
01/19/2019 19:55, Wet, 34.2, , 33, 32, 95, 0, 0, , 0, 1, 48, , None, None, ,  
01/19/2019 19:50, Wet, 34.3, , 33, 32, 85, 0, 0, , 0, 1, 49, , None, None, ,  
01/19/2019 19:45, Wet, 34.2, , 33, 32, 85, 0, 0, , 0, 1, 49, , None, None, ,  
01/19/2019 19:35, Wet, 34.3, , 33, 32, 90, 0, 0, , 0, 1, 50, , Yes, , ,  
01/19/2019 19:35, Wet, 34.3, , 33, 32, 90, 0, 0, , 0, 1, 50, , Yes, , ,  
01/19/2019 19:25, Wet, 34.3, , 33, 32, 90, 0, 0, , 0, 1, 49, , None, None, ,  
01/19/2019 19:21, Wet, 34.3, , 33, 32, 95, 0, 0, , 0, 1, 49, , None, None, ,  
01/19/2019 19:15, Wet, 34.3, , 33, 32, 95, 0, 0, , 0, 1, 51, , None, None, ,  
01/19/2019 19:05, Wet, 34, , 33, 32, 95, 0, 0, , 0, 1, 51, , None, None, ,  
01/19/2019 19:05, Wet, 34, , 33, 32, 95, 0, 0, , 0, 1, 51, , None, None, ,  
01/19/2019 18:55, Wet, 34, , 33, 32, 95, 0, 0, , 0, 1, 53, , None, None, ,  
01/19/2019 18:50, Wet, 34.2, , 33, 32, 95, 0, 0, , 0, 1, 53, , None, None, ,  
01/19/2019 18:44, Wet, 33.8, , 33, 32, 95, 0, 0, , 0, 1, 54, , None, None, ,  
01/19/2019 18:35, Wet, 34, , 33, 32, 95, 0, 0, , 0, 1, 54, , None, None, ,  
01/19/2019 18:34, Wet, 34, , 33, 32, 95, 0, 0, , 0, 1, 54, , None, None, ,  
01/19/2019 18:24, Wet, 34, , 33, 32, 95, 0, 0, , 0, 1, 54, , None, None, ,  
01/19/2019 18:20, Wet, 34, , 33, 32, 95, 0, 0, , 0, 1, 54, , None, None, ,  
01/19/2019 18:14, Wet, 34, , 33, 32, 95, 0, 0, , 0, 1, 55, , None, None, ,  
01/19/2019 18:05, Wet, 34, , 33, 32, 95, 0, 0, , 0, 1, 57, , None, None, ,  
01/19/2019 18:04, Wet, 34, , 33, 32, 95, 0, 0, , 0, 1, 57, , None, None, ,  
01/19/2019 17:54, Wet, 33.8, , 33, 32, 95, 0, 0, , 0, 1, 58, , None, None, ,  
01/19/2019 17:51, Wet, 33.8, , 33, 32, 95, 0, 0, , 0, 1, 60, , None, None, ,  
01/19/2019 17:44, Wet, 34, , 33, 32, 95, 0, 0, , 0, 1, 59, , None, None, ,  
01/19/2019 17:36, Wet, 33.6, , 33, 32, 95, 0, 0, , 0, 1, 55, , None, None, ,  
01/19/2019 17:34, Wet, 33.6, , 33, 32, 95, 0, 0, , 0, 1, 55, , None, None, ,  
01/19/2019 17:24, Wet, 33.6, , 33, 32, 95, 0, 0, , 0, 1, 59, , None, None, ,  
01/19/2019 17:20, Wet, 33.6, , 33, 32, 95, 0, 0, , 0, 1, 61, , None, None, ,  
01/19/2019 17:14, Wet, 33.8, , 33, 32, 95, 0, 0, , 0, 1, 65, , None, None, ,  
01/19/2019 17:05, Wet, 33.8, , 33, 32, 95, 0, 0, , 0, 1, 72, , None, None, ,  
01/19/2019 17:04, Wet, 34, , 33, 32, 95, 0, 0, , 0, 1, 74, , None, None, ,  
01/19/2019 16:54, Wet, 33.4, , 33, 32, 95, 0, 0, , 0, 1, 86, , None, None, ,  
01/19/2019 16:50, Wet, 33.4, , 33, 32, 95, 0, 0, , 0, 1, 94, , None, None, ,  
01/19/2019 16:44, Wet, 33.8, , 33, 32, 95, 0, 0, , 0, 1, 108, , None, None, ,  
01/19/2019 16:35, Wet, 33.6, , 33, 32, 95, 1, 0, , 0, 3, 302, , None, None, ,  
01/19/2019 16:34, Wet, 33.8, , 33, 32, 95, 1, 0, , 0, 3, 334, , None, None, ,  
01/19/2019 16:24, Wet, 33.8, , 33, 31, 95, 2, 0, , 0, 6, 597, , None, None, ,  
01/19/2019 16:20, Wet, 34, , 33, 31, 95, 2, 0, , 0, 6, 613, , None, None, ,  
01/19/2019 16:14, Wet, 34, , 33, 31, 95, 3, 0, , 0, 8, 823, , None, None, ,  
01/19/2019 16:05, Wet, 34.2, , 33, 31, 95, 3, 0, , 0, 10, 973, , None, None, ,  
01/19/2019 16:04, Wet, 34.2, , 33, 31, 95, 3, 0, , 0, 10, 999, , None, None, ,  
01/19/2019 15:54, Wet, 34.3, , 33, 31, 95, 4, 0, , 0, 11, 1121, , None, None, ,  
01/19/2019 15:51, Wet, 34.5, , 33, 31, 95, 4, 0, , 0, 12, 1157, , None, None, ,  
01/19/2019 15:44, Wet, 34.5, , 33, 31, 95, 4, 0, , 0, 12, 1163, , None, None, ,  
01/19/2019 15:36, Wet, 34.5, , 33, 31, 95, 4, 0, , 0, 12, 1223, , None, None, ,  
01/19/2019 15:34, Wet, 34.3, , 33, 31, 95, 4, 0, , 0, 13, 1269, , None, None, ,  
01/19/2019 15:23, Wet, 34.7, , 33, 31, 95, 4, 0, , 0, 12, 1248, , None, None, ,  
01/19/2019 15:21, Wet, 34.9, , 33, 31, 95, 4, 0, , 0, 13, 1276, , None, None, ,  
01/19/2019 15:13, Wet, 35.1, , 33, 31, 95, 4, 0, , 0, 13, 1285, , None, None, ,  
01/19/2019 15:05, Wet, 35.2, , 33, 31, 95, 4, 0, , 0, 13, 1287, , None, None, ,  
01/19/2019 15:03, Wet, 35.2, , 33, 31, 95, 4, 0, , 0, 13, 1266, , None, None, ,  
01/19/2019 14:53, Wet, 35.4, , 33, 31, 95, 5, 0, , 0, 15, 1523, , None, None, ,  
01/19/2019 14:50, Wet, 35.6, , 33, 31, 95, 5, 0, , 0, 15, 1490, , None, None, ,  
01/19/2019 14:43, Wet, 35.6, , 33, 31, 95, 5, 0, , 0, 16, 1649, , None, None, ,  
01/19/2019 14:36, Wet, 36, , 33, 31, 95, 5, 0, , 0, 16, 1584, , None, None, ,  
01/19/2019 14:33, Wet, 36, , 33, 31, 95, 5, 0, , 0, 16, 1575, , None, None, ,  
01/19/2019 14:23, Wet, 36, , 33, 31, 95, 5, 0, , 0, 15, 1456, , None, None, ,  
01/19/2019 14:21, Wet, 36.1, , 33, 31, 95, 5, 0, , 0, 14, 1430, , None, None, ,  
01/19/2019 14:13, Wet, 36.1, , 33, 30, 95, 6, 0, , 0, 18, 1811, , None, None, ,  
01/19/2019 14:06, Wet, 36, , 33, 31, 95, 6, 0, , 0, 17, 1662, , None, None, ,  
01/19/2019 14:03, Wet, 36.3, , 33, 31, 95, 5, 0, , 0, 16, 1547, , None, None, ,  
01/19/2019 13:53, Wet, 36.5, , 33, 31, 95, 5, 0, , 0, 15, 1442, , None, None, ,  
01/19/2019 13:50, Wet, 36.7, , 33, 31, 95, 5, 0, , 0, 17, 1648, , None, None, ,  
01/19/2019 13:43, Wet, 36.5, , 33, 31, 95, 5, 0, , 0, 14, 1384, , None, None, ,  
01/19/2019 13:36, Wet, 36.7, , 33, 31, 95, 5, 0, , 0, 16, 1563, , None, None, ,  
01/19/2019 13:33, Wet, 36.7, , 33, 31, 95, 5, 0, , 0, 15, 1525, , None, None, ,  
01/19/2019 13:23, Wet, 36.7, , 33, 31, 95, 3, 0, , 0, 10, 1001, , None, None, ,  
01/19/2019 13:20, Wet, 36.7, , 33, 31, 95, 3, 0, , 0, 9, 888, , None, None, ,  
01/19/2019 13:13, Wet, 36.7, , 33, 31, 95, 4, 0, , 0, 12, 1181, , None, None, ,  
01/19/2019 13:06, Wet, 37.4, , 33, 31, 95, 5, 0, , 0, 17, 1630, , None, None, ,  
01/19/2019 13:03, Wet, 37.4, , 33, 31, 95, 5, 0, , 0, 16, 1564, , None, None, ,  
01/19/2019 12:53, Wet, 37.9, , 33, 30, 95, 7, 0, , 0, 21, 2070, , None, None, ,  
01/19/2019 12:50, Wet, 38.1, , 33, 30, 95, 6, 0, , 0, 20, 1930, , Other, Other, ,  
01/19/2019 12:43, Wet, 39.2, , 33, 30, 95, 7, 0, , 0, 22, 2125, , None, None, ,  
01/19/2019 12:35, Wet, 38.8, , 33, 30, 95, 8, 0, , 0, 23, 2323, , None, None, ,  
01/19/2019 12:32, Wet, 38.5, , 33, 30, 95, 7, 0, , 0, 23, 2241, , None, None, ,  
01/19/2019 12:22, Wet, 39.4, , 33, 30, 95, 6, 0, , 0, 19, 1860, , None, None, ,  
01/19/2019 12:20, Wet, 39.6, , 33, 31, 95, 6, 0, , 0, 17, 1652, , None, None, ,  
01/19/2019 12:12, Wet, 40.5, , 33, 31, 95, 6, 0, , 0, 18, 1667, , None, None, ,  
01/19/2019 12:05, Wet, 39.2, , 33, 31, 95, 5, 0, , 0, 16, 1493, , None, None, ,  
01/19/2019 12:02, Wet, 39.2, , 33, 31, 95, 5, 0, , 0, 14, 1374, , None, None, ,  
01/19/2019 11:52, Wet, 38.5, , 33, 31, 95, 5, 0, , 0, 16, 1535, , None, None, ,  
01/19/2019 11:50, Wet, 37.9, , 33, 31, 95, 5, 0, , 0, 17, 1630, , None, None, ,  
01/19/2019 11:42, Wet, 37, , 33, 30, 95, 6, 0, , 0, 20, 1949, , None, None, ,  
01/19/2019 11:35, Wet, 36, , 33, 30, 95, 6, 0, , 0, 19, 1892, , None, None, ,  
01/19/2019 11:32, Wet, 35.2, , 33, 30, 95, 6, 0, , 0, 17, 1715, , None, None, ,  
01/19/2019 11:22, Wet, 35.1, , 33, 30, 95, 6, 0, , 0, 19, 1889, , None, None, ,  
01/19/2019 11:20, Wet, 34.7, , 33, 30, 95, 7, 0, , 0, 20, 2041, , Yes, , ,  
01/19/2019 11:12, Wet, 34.2, , 33, 31, 95, 5, 0, , 0, 13, 1365, , None, None, ,  
01/19/2019 11:05, Wet, 33.8, , 33, 31, 95, 4, 0, , 0, 13, 1309, , Yes, , ,  
01/19/2019 11:02, Wet, 33.4, , 33, 31, 95, 3, 0, , 0, 9, 896, , None, None, ,  
01/19/2019 10:52, Wet, 32.4, , 33, 31, 95, 3, 0, , 0, 9, 974, , Yes, , ,  
01/19/2019 10:50, Wet, 32, , 33, 31, 95, 3, 0, , 0, 8, 848, , None, None, ,  
01/19/2019 10:42, Chemically Wet, 31.5, , 33, 31, 95, 3, 0, , 0, 8, 855, , None, None, ,  
01/19/2019 10:35, Chemically Wet, 30.6, , 33, 31, 95, 3, , , 71, 8, 896, , None, None, ,  
01/19/2019 10:32, Chemically Wet, 30.2, , 33, 31, 95, 3, , , 77, 8, 931, , Yes, , ,  
01/19/2019 10:22, Chemically Wet, 29.3, , 33, 31, 95, 3, , , 82, 8, 1002, , None, None, ,  
01/19/2019 10:22, Chemically Wet, 29.3, , 33, 31, 95, 3, , , 82, 8, 999, , None, None, ,  
01/19/2019 10:12, Chemically Wet, 28.9, , 33, 31, 95, 4, , , 80, 10, 1220, , None, None, ,  
01/19/2019 10:05, Chemically Wet, 28.8, , 33, 31, 95, 4, , , 81, 9, 1198, , None, None, ,  
01/19/2019 10:01, Chemically Wet, 28.4, , 33, 31, 95, 4, , , 81, 10, 1312, , None, None, ,  
01/19/2019 09:51, Chemically Wet, 27.9, , 33, 31, 95, 4, , , 84, 9, 1213, , None, None, ,  
01/19/2019 09:51, Chemically Wet, 28, , 33, 31, 95, 4, , , 84, 9, 1209, , None, None, ,  
01/19/2019 09:41, Ice Warning, 27.5, , 33, 31, 95, 3, , , 89, 6, 914, , None, None, ,  
01/19/2019 09:35, Ice Warning, 27.1, , 33, 32, 95, 1, , , 95, 3, 449, , None, None, ,  
01/19/2019 09:31, Ice Warning, 27.1, , 33, 32, 95, 1, , , 95, 3, 432, , None, None, ,  
01/19/2019 09:21, Ice Warning, 26.6, , 33, 32, 95, 1, , , 96, 3, 417, , None, None, ,  
01/19/2019 09:21, Ice Warning, 26.6, , 33, 32, 95, 1, , , 96, 3, 417, , None, None, ,  
01/19/2019 09:11, Ice Warning, 25.9, , 33, 32, 95, 1, , , 96, 3, 444, , None, None, ,  
01/19/2019 09:06, Ice Warning, 25.7, , 33, 32, 95, 1, , , 96, 2, 408, , None, None, ,  
01/19/2019 09:01, Ice Warning, 25.2, , 33, 32, 95, 1, , , 97, 2, 382, , None, None, ,  
01/19/2019 08:51, Ice Warning, 24.6, , 33, 32, 95, 1, , , 97, 2, 334, , None, None, ,  
01/19/2019 08:50, Ice Warning, 24.6, , 33, 32, 95, 1, , , 97, 2, 334, , None, None, ,  
01/19/2019 08:41, Ice Warning, 23.9, , 33, 32, 95, 1, , , 97, 2, 337, , None, None, ,  
01/19/2019 08:36, Ice Warning, 23.7, , 33, 32, 95, 1, , , 97, 2, 348, , None, None, ,  
01/19/2019 08:31, Ice Warning, 23.5, , 33, 32, 95, 1, , , 97, 2, 364, , None, None, ,  
01/19/2019 08:21, Ice Warning, 22.6, , 33, 32, 95, 1, , , 97, 2, 396, , None, None, ,  
01/19/2019 08:21, Ice Warning, 22.6, , 33, 32, 95, 1, , , 97, 2, 396, , None, None, ,  
01/19/2019 08:11, Ice Warning, 22.1, , 33, 32, 95, 1, , , 97, 2, 382, , None, None, ,  
01/19/2019 08:06, Ice Warning, 22.3, , 33, 32, 95, 1, , , 97, 2, 375, , None, None, ,  
01/19/2019 08:01, Ice Warning, 21.7, , 33, 32, 95, 1, , , 97, 2, 388, , None, None, ,  
01/19/2019 07:51, Ice Warning, 21.4, , 33, 32, 85, 1, , , 97, 2, 394, , None, None, ,  
01/19/2019 07:51, Ice Warning, 21.4, , 33, 32, 85, 1, , , 97, 2, 394, , None, None, ,  
01/19/2019 07:41, Ice Warning, 20.8, , 33, 32, 80, 1, , , 98, 2, 395, , None, None, ,  
01/19/2019 07:36, Ice Warning, 20.7, , 33, 32, 85, 1, , , 98, 2, 402, , None, None, ,  
01/19/2019 07:31, Ice Warning, 20.7, , 33, 32, 80, 1, , , 98, 1, 380, , None, None, ,  
01/19/2019 07:21, Ice Warning, 20.5, , 33, 32, 80, 1, , , 98, 1, 371, , None, None, ,  
01/19/2019 07:21, Ice Warning, 20.5, , 33, 32, 80, 1, , , 98, 1, 371, , None, None, ,  
01/19/2019 07:11, Ice Warning, 20.5, , 33, 32, 75, 1, , , 98, 1, 361, , None, None, ,  
01/19/2019 07:05, Ice Warning, 20.7, , 33, 32, 80, 1, , , 98, 1, 355, , None, None, ,  
01/19/2019 07:01, Ice Warning, 20.3, , 33, 32, 75, 1, , , 98, 1, 366, , None, None, ,  
01/19/2019 06:51, Ice Warning, 20.3, , 33, 32, 80, 1, , , 98, 1, 373, , None, None, ,  
01/19/2019 06:50, Ice Warning, 20.5, , 33, 32, 80, 1, , , 98, 1, 369, , None, None, ,  
01/19/2019 06:40, Ice Warning, 20.3, , 33, 32, 70, 1, , , 98, 1, 373, , None, None, ,  
01/19/2019 06:35, Ice Warning, 20.3, , 33, 32, 75, 1, , , 98, 1, 371, , None, None, ,  
01/19/2019 06:30, Ice Warning, 20.5, , 33, 32, 70, 1, , , 98, 1, 369, , None, None, ,  
01/19/2019 06:20, Ice Warning, 19.9, , 33, 32, 70, 1, , , 98, 1, 366, , None, None, ,  
01/19/2019 06:20, Ice Warning, 20.1, , 33, 32, 70, 1, , , 98, 1, 363, , None, None, ,  
01/19/2019 06:10, Ice Warning, 20.1, , 33, 32, 70, 1, , , 98, 1, 363, , None, None, ,  
01/19/2019 06:05, Ice Warning, 19.8, , 33, 32, 70, 1, , , 98, 1, 359, , None, None, ,  
01/19/2019 06:00, Ice Warning, 19.8, , 33, 32, 70, 1, , , 98, 1, 365, , None, None, ,  
01/19/2019 05:50, Ice Warning, 19.9, , 33, 32, 70, 1, , , 98, 1, 351, , None, None, ,  
01/19/2019 05:50, Ice Warning, 19.9, , 33, 32, 70, 1, , , 98, 1, 353, , None, None, ,  
01/19/2019 05:40, Ice Warning, 19.8, , 33, 32, 70, 1, , , 98, 1, 359, , None, None, ,  
01/19/2019 05:36, Ice Warning, 20.1, , 33, 32, 70, 1, , , 98, 1, 350, , None, None, ,  
01/19/2019 05:30, Ice Warning, 19.9, , 33, 32, 70, 1, , , 98, 1, 341, , None, None, ,  
01/19/2019 05:20, Ice Warning, 19.9, , 33, 32, 65, 1, , , 98, 1, 345, , None, None, ,  
01/19/2019 05:20, Ice Warning, 19.9, , 33, 32, 65, 1, , , 98, 1, 345, , None, None, ,  
01/19/2019 05:10, Ice Warning, 19.9, , 33, 32, 65, 1, , , 98, 1, 341, , None, None, ,  
01/19/2019 05:05, Ice Warning, 19.8, , 33, 32, 60, 1, , , 98, 1, 342, , None, None, ,  
01/19/2019 05:00, Ice Warning, 19.4, , 33, 32, 60, 1, , , 98, 1, 349, , None, None, ,  
01/19/2019 04:51, Ice Warning, 19.4, , 34, 32, 55, 1, , , 98, 1, 355, , None, None, ,  
01/19/2019 04:50, Ice Warning, 19.4, , 34, 32, 55, 1, , , 98, 1, 353, , None, None, ,  
01/19/2019 04:40, Ice Warning, 19.2, , 34, 32, 55, 1, , , 98, 1, 355, , None, None, ,  
01/19/2019 04:35, Ice Warning, 19.2, , 33, 32, 55, 1, , , 98, 1, 358, , None, None, ,  
01/19/2019 04:30, Ice Warning, 19.2, , 34, 32, 55, 1, , , 98, 1, 358, , None, None, ,  
01/19/2019 04:20, Ice Warning, 19, , 33, 32, 55, 1, , , 98, 1, 363, , None, None, ,  
01/19/2019 04:20, Ice Warning, 19, , 33, 32, 55, 1, , , 98, 1, 363, , None, None, ,  
01/19/2019 04:10, Ice Warning, 19, , 34, 32, 55, 1, , , 98, 1, 377, , None, None, ,  
01/19/2019 04:05, Ice Warning, 18.9, , 34, 32, 55, 1, , , 98, 1, 376, , None, None, ,  
01/19/2019 04:00, Ice Warning, 18.9, , 34, 32, 55, 1, , , 98, 1, 386, , None, None, ,  
01/19/2019 03:50, Ice Warning, 18.7, , 34, 32, 55, 1, , , 98, 1, 379, , None, None, ,  
01/19/2019 03:50, Ice Warning, 18.7, , 34, 32, 55, 1, , , 98, 1, 379, , None, None, ,  
01/19/2019 03:40, Ice Warning, 18.7, , 34, 32, 55, 1, , , 98, 1, 378, , None, None, ,  
01/19/2019 03:35, Ice Warning, 18.7, , 34, 32, 55, 1, , , 98, 1, 376, , None, None, ,  
01/19/2019 03:30, Ice Warning, 18.5, , 34, 32, 55, 1, , , 98, 1, 379, , None, None, ,  
01/19/2019 03:20, Ice Warning, 18.7, , 34, 32, 55, 1, , , 98, 1, 370, , None, None, ,  
01/19/2019 03:19, Ice Warning, 18.7, , 34, 32, 55, 1, , , 98, 1, 370, , None, None, ,  
01/19/2019 03:09, Ice Warning, 18.5, , 34, 32, 55, 1, , , 98, 1, 374, , None, None, ,  
01/19/2019 03:05, Ice Warning, 18.5, , 34, 32, 60, 1, , , 98, 1, 366, , None, None, ,  
01/19/2019 02:59, Ice Warning, 18.5, , 34, 32, 60, 1, , , 98, 1, 363, , None, None, ,  
01/19/2019 02:50, Ice Warning, 18.3, , 34, 32, 60, 1, , , 98, 1, 362, , None, None, ,  
01/19/2019 02:49, Ice Warning, 18.3, , 34, 32, 60, 1, , , 98, 1, 373, , None, None, ,  
01/19/2019 02:39, Ice Warning, 18.3, , 34, 32, 55, 1, , , 98, 1, 371, , None, None, ,  
01/19/2019 02:35, Ice Warning, 18.3, , 34, 32, 60, 1, , , 98, 1, 373, , None, None, ,  
01/19/2019 02:29, Ice Warning, 18.5, , 34, 32, 55, 1, , , 98, 1, 371, , None, None, ,  
01/19/2019 02:20, Ice Warning, 18.3, , 34, 32, 55, 1, , , 98, 1, 381, , None, None, ,  
01/19/2019 02:19, Ice Warning, 18.5, , 34, 32, 60, 1, , , 98, 1, 374, , None, None, ,  
Change End Date:

Copyright © 1998-2015 Vaisala, Inc.
All Rights Reserved
Send comments about the data to:
SCAN Web ® is a registered trademark of Vaisala, Inc.
SCAN Web Version 6.0